Aviation Digital Data Service (ADDS)

Output produced by METARs form (0423 UTC 24 January 2019)
found at http://www.aviationweather.gov/metar/data/
 
Forecast for: HLMS (MISRATA , LY)
Text: TAF HLMS 231700Z 2318/2418 20012G22KT 8000 SCT023 SCT060
Forecast period: 1800 UTC 23 January 2019 to 0800 UTC 24 January 2019
Forecast type: FROM: standard forecast or significant change
Winds: from the SSW (200 degrees) at 14 MPH (12 knots; 6.2 m/s)
gusting to 25 MPH (22 knots; 11.3 m/s)
Visibility: 5 miles (8 km)
Ceiling: at least 12,000 feet AGL
Clouds: scattered clouds at 2300 feet AGL
scattered clouds at 6000 feet AGL
Weather: no significant weather forecast for this period
Text: BECMG 2408/2410 27015G25KT
Forecast period: 0800 to 1800 UTC 24 January 2019
Forecast type: BECOMING: Conditions expected to become as follows by 1000 UTC 24 January 2019
Winds: from the W (270 degrees) at 17 MPH (15 knots; 7.7 m/s)
gusting to 29 MPH (25 knots; 12.9 m/s)
Visibility: 5 miles (8 km)
Ceiling: at least 12,000 feet AGL
Clouds: scattered clouds at 2300 feet AGL
scattered clouds at 6000 feet AGL
Weather: no significant weather forecast for this period
Text: PROB30
Forecast period: 1200 to 1800 UTC 24 January 2019
Forecast type: TEMPORARY: The following changes expected for less than half the time period
Visibility: 3 miles (5 km)
Ceiling: 2000 feet AGL
Clouds: broken clouds at 2000 feet AGL
broken clouds at 6000 feet AGL
Weather: SHRA  (rain showers)